メキシコシティ の空港の天気 - METARとTAF

メキシコ・シティ国際空港 ( MMMX / MEX ) - メキシコ メキシコシティ
飛行場実況気象(Metar)
観測時間05/28 05:41 CDT (05/28 10:41 UTC)
風向・風速東 2m/s
視程10km以上
天気現象
なし
気温13℃
湿度67%
気圧1026hPa
METARMMMX 281041Z 08003KT 8SM SKC 13/07 A3029 NOSIG RMK HZY
過去の天気等 Google飛行場航空写真 Wunderground天気予報

過去48時間のMETAR

飛行場予報(TAF)
発表時間: 5/27 23:58 CDT (5/28 04:58 UTC)
予報対象時間: 28日1時 CDT ~ 29日7時 CDT
風向・風速西北西 4m/s
視程10km以上
なし
28日11時 CDT から
風向・風速北北東 6m/s
視程10km以上
全天の4割程度の雲 雲底高度 610m
28日17時 CDT ~ 28日21時 CDT に一時的に
視程8050m
天気現象周辺で 雷
28日22時 CDT から
風向・風速北北東 4m/s
視程10km以上
全天の4割程度の雲 雲底高度 610m
全天の8割程度の雲 雲底高度 7620m
TAF MMMX 280458Z 2806/2912 30008KT P6SM SKC TX28/2821Z TN15/2812Z
FM281600 03012KT P6SM SCT020
TEMPO 2822/2902 5SM VC TS
FM290300 03008KT P6SM SCT020 BKN250